Date,TemperatureHighF,TemperatureAvgF,TemperatureLowF,DewpointHighF,DewpointAvgF,DewpointLowF,HumidityHigh,HumidityAvg,HumidityLow,PressureMaxIn,PressureMinIn,WindSpeedMaxMPH,WindSpeedAvgMPH,GustSpeedMaxMPH,PrecipitationSumIn
2013-1-1,40.4,37.3,28.0,31.4,27.8,15.3,79,68,58,30.05,29.86,13,3,14,0.01
2013-1-2,37.1,28.7,23.5,19.3,16.5,14.1,69,60,47,30.21,30.02,18,3,18,0.00
2013-1-3,37.4,29.4,21.8,20.6,18.1,16.7,83,63,44,30.22,30.10,13,1,13,0.00
2013-1-4,39.6,33.8,24.9,24.8,22.7,19.7,82,63,53,30.13,30.00,17,3,17,0.00
2013-1-5,47.2,35.2,28.6,26.4,22.9,20.2,81,62,42,30.34,30.06,16,3,18,0.00
2013-1-6,50.6,39.0,30.9,34.8,29.7,24.6,94,71,45,30.25,30.00,11,1,11,0.01
2013-1-7,51.9,39.3,26.3,32.9,27.6,23.2,88,65,39,30.42,30.08,16,2,16,0.00
2013-1-8,52.4,34.6,23.5,35.2,28.1,21.7,94,79,50,30.44,30.36,14,1,14,0.00
2013-1-9,49.2,39.7,28.1,40.5,33.6,26.3,94,80,64,30.41,30.16,13,1,13,0.00
2013-1-10,54.7,43.2,33.4,34.0,28.8,26.9,80,58,36,30.56,30.28,15,2,15,0.00
2013-1-11,46.6,39.6,32.2,44.1,35.4,27.5,97,85,70,30.55,30.10,8,0,8,0.49
2013-1-12,48.8,45.3,43.1,46.3,44.1,42.3,98,95,90,30.19,30.09,7,1,7,0.00
2013-1-13,49.1,45.9,43.1,48.6,45.3,42.4,99,98,97,30.17,30.01,6,1,7,0.01
2013-1-14,55.8,50.0,39.4,53.4,45.3,33.7,99,85,57,30.31,29.92,14,2,14,0.04
2013-1-15,39.8,38.0,35.3,37.0,33.1,29.1,95,83,70,30.37,30.22,11,1,11,0.11
2013-1-16,36.9,34.5,32.7,35.5,33.3,31.4,97,95,90,30.22,29.82,13,1,13,0.50
2013-1-17,47.6,39.7,36.1,35.2,32.2,27.7,94,75,56,30.12,29.94,14,2,15,0.00
2013-1-18,36.6,31.3,25.7,28.9,16.1,7.1,80,55,31,30.50,30.01,21,4,21,0.00
2013-1-19,52.8,38.7,26.0,30.6,23.7,13.6,77,55,39,30.48,29.94,19,4,21,0.00
2013-1-20,56.9,43.8,30.6,32.6,25.5,13.5,70,50,24,30.07,29.74,25,5,26,0.00
2013-1-21,31.9,28.4,21.8,24.2,14.9,11.4,83,57,44,30.12,29.88,22,2,22,0.00
2013-1-22,26.0,20.1,13.4,12.4,1.9,-2.9,56,45,31,30.26,29.88,28,6,28,0.00
2013-1-23,22.9,14.7,9.6,6.6,1.6,-4.1,85,57,38,30.30,30.20,17,3,17,0.00
2013-1-24,28.2,18.0,9.2,9.8,4.3,-1.8,87,59,27,30.46,30.14,24,4,26,0.00
2013-1-25,24.1,17.4,11.8,16.2,6.5,-1.1,88,63,44,30.47,30.09,14,2,15,0.00
2013-1-26,32.2,21.0,9.2,14.7,10.3,6.1,91,65,40,30.41,30.08,16,3,19,0.03
2013-1-27,39.4,24.9,13.1,17.0,13.0,8.0,83,62,38,30.57,30.41,15,2,15,0.00
2013-1-28,35.0,29.5,19.9,33.7,26.3,14.7,95,88,75,30.52,30.04,10,1,10,0.10
2013-1-29,52.2,42.7,33.7,45.5,39.6,32.4,97,89,75,30.16,30.03,8,0,8,0.00
2013-1-30,67.3,53.8,39.8,60.3,50.5,39.0,98,89,76,30.08,29.35,27,3,27,0.06
2013-1-31,62.2,45.3,28.8,60.0,32.2,13.2,95,62,35,29.85,29.08,33,8,33,0.79
2013-2-1,34.1,28.6,22.7,17.3,11.7,6.7,60,49,37,30.28,29.84,28,5,28,0.00
2013-2-2,32.6,24.3,16.6,22.2,10.5,6.0,90,57,36,30.33,30.06,13,2,13,0.00
2013-2-3,34.7,26.9,22.5,24.1,21.6,18.5,92,81,61,30.06,29.82,11,1,11,0.02
2013-2-4,32.2,26.6,21.3,23.5,13.8,10.0,82,59,42,30.03,29.85,19,4,19,0.00
2013-2-5,33.0,30.0,25.6,29.8,26.7,21.1,93,87,82,29.99,29.90,6,0,6,0.01
2013-2-6,42.8,32.8,24.5,29.1,24.1,16.1,95,72,46,30.37,29.94,20,2,20,0.01
2013-2-7,34.7,28.0,20.2,25.0,17.6,14.6,86,66,47,30.52,30.32,10,1,10,0.00
2013-2-8,37.5,33.6,30.3,33.4,31.0,24.8,96,90,73,30.32,29.68,17,3,17,0.15
2013-2-9,36.8,29.2,20.2,30.7,19.7,8.2,97,69,45,30.38,29.79,29,6,29,0.26
2013-2-10,40.2,26.8,13.3,22.7,13.6,7.9,83,60,32,30.51,30.34,10,1,10,0.12
2013-2-11,42.7,35.5,29.5,42.2,33.2,21.6,98,92,72,30.34,29.67,10,0,10,0.24
2013-2-12,49.6,40.6,29.0,39.2,28.2,24.1,97,63,43,30.00,29.77,20,4,24,0.00
2013-2-13,47.2,35.0,23.5,31.7,26.7,21.4,94,74,46,29.99,29.70,7,0,7,0.00
2013-2-14,52.1,37.5,29.6,37.0,30.6,27.0,97,79,41,30.03,29.73,10,1,10,0.10
2013-2-15,59.2,42.3,29.1,36.8,32.6,27.4,96,72,40,30.04,29.92,14,1,14,0.00
2013-2-16,42.9,36.0,30.1,35.1,27.1,13.7,95,72,50,30.00,29.77,20,3,20,0.05
2013-2-17,34.3,28.2,19.5,14.1,7.8,1.6,51,42,31,30.08,29.73,34,8,34,0.00
2013-2-18,40.2,26.9,17.5,18.2,8.4,1.7,63,46,29,30.30,30.07,23,5,23,0.00
2013-2-19,48.1,36.6,23.1,42.8,30.0,15.8,94,78,50,30.22,29.71,20,3,20,0.16
2013-2-20,36.7,30.9,25.0,28.9,15.4,11.4,75,52,41,30.04,29.78,24,7,25,0.00
2013-2-21,39.7,29.6,23.5,18.2,15.0,11.6,68,55,40,30.31,30.02,24,6,24,0.01
2013-2-22,38.2,30.9,22.4,29.5,22.4,14.6,82,71,55,30.42,30.27,10,1,10,0.00
2013-2-23,45.7,39.4,33.6,44.5,37.7,29.1,97,94,81,30.28,29.82,16,1,16,0.12
2013-2-24,50.3,39.2,31.9,40.6,32.4,22.5,97,78,55,30.03,29.78,22,4,23,0.02
2013-2-25,46.8,36.9,27.0,30.6,26.9,22.5,86,68,51,30.25,30.03,13,2,15,0.00
2013-2-26,45.2,35.9,25.4,36.0,30.2,23.4,94,81,61,30.29,29.85,30,3,30,0.07
2013-2-27,53.9,44.2,37.8,47.6,40.8,36.0,97,88,67,29.87,29.52,35,4,35,0.18
2013-2-28,51.7,42.7,35.6,38.9,34.6,28.9,94,74,49,29.66,29.58,12,2,14,0.00
2013-3-1,49.6,40.0,33.5,32.6,29.9,26.5,88,68,46,29.82,29.64,18,5,18,0.00
2013-3-2,41.7,35.8,30.2,26.8,24.3,21.6,72,63,52,29.83,29.73,16,4,16,0.00
2013-3-3,40.7,32.9,28.3,22.5,20.2,17.5,70,60,46,29.82,29.72,22,5,22,0.00
2013-3-4,45.8,35.3,28.2,23.5,20.5,17.1,67,55,40,29.96,29.81,24,6,25,0.00
2013-3-5,53.3,40.0,30.6,29.1,25.5,22.1,82,58,37,30.05,29.96,19,2,19,0.00
2013-3-6,42.6,38.4,31.3,36.8,32.8,26.8,90,80,67,29.98,29.81,35,6,35,0.02
2013-3-7,44.1,38.2,33.3,35.4,30.8,26.4,92,75,59,30.11,29.94,23,5,23,0.03
2013-3-8,41.5,34.9,30.3,36.1,31.3,27.8,95,87,70,30.22,30.04,13,4,13,0.29
2013-3-9,65.0,44.6,29.6,29.3,23.4,13.2,78,49,14,30.33,30.20,12,2,12,0.00
2013-3-10,57.2,40.2,25.6,36.8,30.7,22.5,91,71,41,30.40,30.28,15,2,15,0.00
2013-3-11,60.8,46.1,33.2,48.3,40.4,30.9,93,82,50,30.34,30.09,14,2,14,0.00
2013-3-12,58.0,52.9,45.4,56.7,49.7,39.0,97,89,76,30.09,29.68,21,5,21,0.63
2013-3-13,52.7,43.2,34.7,39.0,31.0,25.6,86,64,37,29.93,29.83,18,3,20,0.00
2013-3-14,44.4,36.4,30.0,26.4,16.2,10.8,67,45,29,30.01,29.89,29,6,29,0.00
2013-3-15,50.7,39.7,28.0,33.2,21.9,12.4,60,49,41,30.03,29.74,16,3,16,0.00
2013-3-16,45.4,36.2,33.3,32.6,29.4,23.0,94,77,54,29.94,29.80,12,1,12,0.06
2013-3-17,43.5,33.8,27.2,32.3,23.6,18.7,95,68,41,30.32,29.93,15,2,15,0.03
2013-3-18,38.3,31.5,24.0,34.4,24.6,14.2,94,76,54,30.41,29.97,18,2,18,0.13
2013-3-19,53.1,40.6,35.0,40.0,33.3,17.1,97,78,40,29.97,29.71,24,3,24,0.39
2013-3-20,48.2,38.9,31.3,26.3,20.4,17.9,70,48,31,29.93,29.80,23,4,23,0.00
2013-3-21,41.2,35.0,29.4,28.7,20.5,13.9,87,57,35,29.85,29.66,17,4,18,0.00
2013-3-22,44.3,34.7,26.7,23.5,20.1,14.3,75,56,38,29.93,29.78,26,4,26,0.00
2013-3-23,50.1,39.4,30.8,24.2,21.5,19.6,66,50,34,29.98,29.86,21,5,23,0.00
2013-3-24,50.4,40.1,27.6,27.4,22.5,19.8,75,51,33,29.98,29.71,16,2,16,0.00
2013-3-25,38.9,36.7,33.6,35.5,32.1,27.4,94,84,66,29.72,29.49,14,2,16,0.16
2013-3-26,53.4,43.0,33.7,36.4,32.1,26.7,96,69,38,29.90,29.63,14,2,15,0.01
2013-3-27,54.4,43.2,30.0,33.2,29.2,24.9,85,60,33,30.02,29.90,28,4,28,0.00
2013-3-28,52.9,44.1,33.6,32.5,30.3,27.8,80,59,41,30.14,30.00,17,4,17,0.00
2013-3-29,58.7,45.4,30.8,32.8,29.8,27.3,87,57,33,30.18,30.08,17,2,17,0.00
2013-3-30,62.0,46.2,30.4,33.7,27.4,22.0,90,54,24,30.20,30.09,15,2,15,0.00
2013-3-31,57.0,45.3,32.8,44.7,35.7,26.9,96,72,37,30.15,29.71,21,2,21,0.15
2013-4-1,65.0,49.4,37.5,47.4,37.3,14.2,98,68,35,29.95,29.66,25,4,25,0.00
2013-4-2,47.0,38.2,27.4,20.2,15.5,12.7,72,41,27,30.12,29.95,23,4,25,0.00
2013-4-3,49.3,39.3,30.7,18.9,15.0,11.4,51,38,25,30.33,30.12,21,5,24,0.00
2013-4-4,40.9,36.8,26.2,19.8,18.3,12.7,70,48,39,30.42,30.30,13,3,13,0.00
2013-4-5,40.7,40.7,40.7,19.4,19.4,19.4,42,42,42,30.39,30.39,4,4,5,0.00
2013-4-6,40.7,40.7,40.7,19.4,19.4,19.4,42,42,42,30.39,30.39,4,4,5,0.00
2013-4-7,40.7,40.7,40.7,19.4,19.4,19.4,42,42,42,30.39,30.39,4,4,5,0.00
2013-4-8,40.7,40.7,40.7,19.4,19.4,19.4,42,42,42,30.39,30.39,4,4,5,0.00
2013-4-9,40.7,40.7,40.7,19.4,19.4,19.4,42,42,42,30.39,30.39,4,4,5,0.00
2013-4-10,40.7,40.7,40.7,19.4,19.4,19.4,42,42,42,30.39,30.39,4,4,5,0.00
2013-4-11,40.7,40.7,40.7,19.4,19.4,19.4,42,42,42,30.39,30.39,4,4,5,0.00
2013-4-12,40.7,40.7,40.7,19.4,19.4,19.4,42,42,42,30.39,30.39,4,4,5,0.00
2013-4-13,61.1,48.5,40.7,41.4,29.8,19.4,82,49,41,30.39,29.88,13,3,15,0.01
2013-4-14,64.1,52.2,39.0,42.2,35.7,27.4,96,58,29,30.21,29.99,23,3,23,0.00
2013-4-15,62.6,52.1,44.4,41.2,35.6,31.3,75,54,40,30.38,30.21,16,2,16,0.00
2013-4-16,73.0,59.5,47.3,57.9,50.1,41.0,88,72,54,30.38,30.13,20,3,20,0.00
2013-4-17,77.4,63.9,53.3,56.6,45.0,31.4,93,56,19,30.30,30.11,13,2,13,0.00
2013-4-18,60.5,54.3,47.0,56.7,48.0,42.1,95,80,63,30.34,30.09,18,2,19,0.00
2013-4-19,79.1,67.2,57.7,66.4,61.5,54.7,96,83,59,30.09,29.64,20,4,20,0.15
2013-4-20,60.2,52.7,46.5,54.9,36.1,26.5,93,57,32,30.33,29.73,15,4,22,0.13
2013-4-21,59.6,46.4,33.6,31.0,25.4,20.2,69,45,26,30.63,30.33,16,2,16,0.00
2013-4-22,54.1,44.1,31.2,38.0,33.5,29.1,95,68,41,30.65,30.48,24,3,24,0.00
2013-4-23,50.4,45.1,40.5,44.0,38.4,33.3,90,77,67,30.49,30.14,14,2,14,0.00
2013-4-24,74.5,55.2,34.8,55.0,46.4,33.5,98,75,49,30.14,29.82,16,2,16,0.00
2013-4-25,68.3,55.9,44.7,55.1,34.2,26.9,83,47,22,30.29,29.88,22,4,23,0.00
2013-4-26,69.0,53.9,39.1,38.6,34.2,27.5,87,53,23,30.42,30.28,13,2,14,0.00
2013-4-27,73.7,55.6,37.0,36.7,34.4,31.5,88,50,23,30.45,30.28,13,1,13,0.00
2013-4-28,72.5,57.5,39.8,45.6,38.2,29.0,89,52,30,30.33,30.21,18,2,18,0.00
2013-4-29,55.4,53.0,51.7,52.7,50.1,42.6,96,90,63,30.25,30.17,14,1,14,0.19
2013-4-30,69.7,56.9,44.6,52.2,44.0,31.3,97,67,29,30.35,30.21,14,1,14,0.03
2013-5-1,69.7,53.8,37.4,46.0,39.2,31.6,93,63,28,30.50,30.35,17,2,18,0.00
2013-5-2,75.7,58.2,38.1,48.2,42.5,36.5,97,62,30,30.49,30.34,9,1,9,0.00
2013-5-3,62.8,62.8,62.8,43.4,43.4,43.4,49,49,49,30.34,30.34,0,0,0,0.00
2013-5-4,62.8,62.8,62.8,43.4,43.4,43.4,49,49,49,30.34,30.34,0,0,0,0.00
2013-5-5,62.8,62.8,62.8,43.4,43.4,43.4,49,49,49,30.34,30.34,0,0,0,0.00
2013-5-6,70.8,62.5,51.2,55.6,47.1,43.4,90,58,49,30.34,30.16,12,0,12,0.00
2013-5-7,72.4,60.1,50.2,60.3,54.8,47.8,93,83,64,30.18,30.08,15,1,15,0.00
2013-5-8,70.9,60.8,54.5,64.9,59.0,53.1,98,94,78,30.10,29.95,22,1,22,0.86
2013-5-9,73.5,61.4,54.4,59.8,56.2,53.0,98,84,55,30.01,29.92,11,1,11,0.31
2013-5-10,85.3,68.6,51.6,62.5,56.5,50.8,99,70,34,30.02,29.91,11,1,11,0.05
2013-5-11,75.8,65.6,61.0,66.9,63.0,59.4,98,92,67,29.93,29.72,14,1,14,0.26
2013-5-12,67.7,60.3,48.9,59.7,44.1,29.4,95,60,28,29.99,29.70,20,3,20,0.01
2013-5-13,58.7,49.3,38.9,36.0,32.0,25.3,87,54,31,30.14,29.98,19,2,19,0.01
2013-5-14,64.8,49.4,33.7,39.1,31.6,22.9,97,58,22,30.17,30.05,15,2,15,0.00
2013-5-15,76.5,61.1,44.5,59.6,50.0,36.2,84,68,50,30.09,29.71,15,1,15,0.00
2013-5-16,83.3,67.9,55.5,64.1,59.0,54.1,97,76,48,29.87,29.73,10,1,10,0.00
2013-5-17,78.3,63.8,52.4,56.6,46.7,41.3,90,58,28,30.21,29.86,12,2,14,0.00
2013-5-18,66.1,58.3,51.0,57.6,52.8,46.8,93,82,64,30.32,30.21,10,1,10,0.01
2013-5-19,59.7,57.5,54.9,58.8,56.6,53.8,98,97,93,30.31,30.18,9,1,10,0.14
2013-5-20,81.2,67.5,57.1,69.3,63.2,56.5,99,88,65,30.20,29.98,8,0,8,0.01
2013-5-21,87.3,74.4,61.4,72.8,67.4,60.4,99,81,60,30.00,29.87,14,1,14,0.00
2013-5-22,87.0,74.7,66.4,74.3,69.1,65.4,98,84,59,29.94,29.83,14,1,14,0.00
2013-5-23,80.9,72.1,68.4,72.2,68.6,66.1,96,89,67,29.91,29.76,17,2,17,0.01
2013-5-24,68.4,55.5,44.5,66.3,52.8,41.8,99,91,76,30.01,29.72,18,4,18,0.01
2013-5-25,61.5,52.0,43.2,44.8,40.5,34.6,94,68,41,30.06,29.96,27,6,27,0.00
2013-5-26,72.2,57.8,44.8,41.6,38.7,34.4,82,52,27,30.23,30.03,22,4,22,0.00
2013-5-27,77.9,59.0,38.8,49.8,41.9,36.8,97,60,26,30.28,30.16,14,1,14,0.00
2013-5-28,63.5,57.2,48.9,59.1,54.2,47.0,98,90,71,30.24,30.13,8,0,8,0.00
2013-5-29,91.6,72.9,58.7,71.4,64.3,58.1,99,78,44,30.14,30.03,10,1,10,0.00
2013-5-30,96.5,81.1,67.7,70.9,67.1,62.9,95,67,34,30.16,30.08,10,1,10,0.00
2013-5-31,94.8,80.8,66.4,72.8,66.3,57.7,95,65,32,30.15,30.01,9,1,9,0.00
2013-6-1,93.8,81.2,69.1,70.9,67.9,64.4,91,66,40,30.05,29.91,13,1,13,0.00
2013-6-2,90.0,80.3,71.1,71.9,69.2,65.2,89,70,48,29.94,29.81,15,2,15,0.00
2013-6-3,84.8,72.4,64.3,71.2,67.7,61.9,98,86,56,29.91,29.80,15,1,15,0.00
2013-6-4,79.7,66.1,55.0,61.5,49.4,45.1,91,58,31,30.14,29.91,16,2,16,0.00
2013-6-5,80.2,64.2,47.8,56.0,50.8,45.6,94,65,39,30.23,30.12,13,1,13,0.00
2013-6-6,73.1,63.2,53.3,60.8,57.0,51.5,97,82,48,30.16,30.01,14,1,14,0.00
2013-6-7,64.4,61.9,59.9,63.5,61.1,59.0,98,97,95,30.01,29.61,14,2,17,0.00
2013-6-8,80.3,68.3,58.1,66.9,62.6,56.8,98,83,61,30.08,29.60,16,2,16,0.00
2013-6-9,85.5,71.6,56.9,66.3,60.4,55.5,98,72,42,30.20,30.08,9,1,10,0.00
2013-6-10,70.5,67.3,65.2,70.1,65.8,62.5,99,95,89,30.17,29.81,13,1,13,0.00
2013-6-11,83.3,74.6,67.4,69.8,66.8,61.8,99,78,58,29.82,29.67,15,2,15,0.00
2013-6-12,85.0,73.4,63.0,63.0,59.0,55.5,85,63,38,29.87,29.75,16,2,17,0.00
2013-6-13,75.3,64.6,58.2,68.9,61.6,56.5,96,90,79,29.87,29.43,15,1,16,0.00
2013-6-14,77.7,61.3,54.2,63.4,56.1,51.5,96,84,53,29.93,29.54,19,2,19,0.00
2013-6-15,67.1,63.0,53.5,61.7,59.1,52.7,99,88,82,30.04,29.93,7,1,7,0.00
2013-6-16,67.1,67.1,67.1,61.4,61.4,61.4,82,82,82,30.04,30.04,2,2,3,0.00
2013-6-17,89.2,71.9,67.1,70.5,64.0,61.4,92,78,46,30.04,29.86,17,2,17,0.00
2013-6-18,81.3,68.4,63.3,71.9,65.9,62.0,98,92,70,29.92,29.83,11,0,11,0.00
2013-6-19,82.3,69.2,59.1,62.9,56.1,48.6,97,68,32,30.18,29.89,13,1,15,0.00
2013-6-20,82.5,69.3,54.8,61.8,57.3,52.1,97,68,44,30.29,30.18,10,1,10,0.00
2013-6-21,85.5,71.5,55.4,61.5,56.1,51.5,92,61,39,30.33,30.25,10,1,10,0.00
2013-6-22,87.2,72.6,55.9,67.0,61.4,53.9,96,70,47,30.29,30.13,10,1,10,0.00
2013-6-23,88.4,74.9,61.9,74.8,67.9,59.8,96,80,54,30.22,30.07,19,1,19,0.00
2013-6-24,95.3,79.4,70.0,75.1,69.8,61.7,98,75,46,30.10,29.99,13,1,15,0.00
2013-6-25,94.4,80.1,66.4,73.8,68.9,64.7,95,71,44,30.03,29.85,11,1,11,0.00
2013-6-26,92.8,79.7,71.9,74.5,69.0,64.4,91,71,46,29.89,29.80,13,1,13,0.00
2013-6-27,89.1,78.6,70.9,75.3,71.6,69.4,97,81,58,29.85,29.58,15,1,15,0.50
2013-6-28,89.3,76.9,70.0,73.1,70.5,66.9,97,82,54,29.60,29.49,11,1,11,0.01
2013-6-29,88.7,77.0,66.8,71.2,67.8,64.8,98,76,47,29.72,29.51,11,1,11,0.00
2013-6-30,81.7,75.1,70.3,76.8,72.3,69.4,98,91,77,29.92,29.72,7,0,7,0.11
2013-7-1,77.1,74.6,72.5,75.3,72.8,70.5,98,94,90,30.06,29.91,14,1,14,0.27
2013-7-2,85.7,76.5,72.1,76.0,73.2,71.3,98,90,70,30.20,30.05,14,1,14,0.17
2013-7-3,87.0,76.5,70.4,78.7,73.5,69.6,99,91,71,30.27,30.18,10,1,10,0.12
2013-7-4,90.9,81.1,74.1,76.9,74.3,72.0,98,81,59,30.28,30.18,11,1,12,0.00
2013-7-5,93.4,83.0,73.6,77.3,73.8,71.7,95,76,50,30.24,30.11,11,1,13,0.00
2013-7-6,96.7,84.9,74.2,77.4,74.5,72.4,95,73,48,30.17,30.05,11,1,11,0.00
2013-7-7,98.0,84.7,73.8,77.3,73.8,69.2,94,72,50,30.10,29.96,19,1,19,0.00
2013-7-8,91.3,79.2,70.5,73.5,69.7,65.9,91,74,51,30.08,30.00,8,1,9,0.00
2013-7-9,89.3,78.0,68.6,74.3,70.9,67.2,97,81,57,30.10,30.00,9,0,9,0.06
2013-7-10,89.5,80.0,72.2,78.6,73.6,70.9,98,82,59,30.04,29.83,13,1,14,0.02
2013-7-11,90.9,80.4,73.4,74.5,72.1,68.4,89,77,53,29.94,29.83,8,1,8,0.00
2013-7-12,79.5,72.7,68.8,70.9,67.7,64.5,96,85,68,30.08,29.93,16,1,16,1.13
2013-7-13,84.7,75.3,68.9,78.9,73.2,67.7,99,94,78,30.30,30.08,13,1,15,0.81
2013-7-14,94.0,81.5,72.8,78.4,74.6,72.2,99,82,53,30.37,30.26,9,0,9,0.00
2013-7-15,98.1,83.9,71.3,81.6,75.5,70.1,97,78,50,30.28,30.15,12,1,12,0.00
2013-7-16,98.5,84.0,70.7,78.8,72.7,68.8,97,73,41,30.23,30.15,12,1,12,0.00
2013-7-17,100.7,84.8,71.7,77.4,73.1,70.0,96,72,39,30.22,30.08,1,0,1,0.00
2013-7-18,100.3,86.6,74.3,80.2,75.9,72.2,94,73,47,30.10,29.98,9,1,9,0.00
2013-7-19,98.8,88.1,78.2,81.1,78.1,75.8,94,74,51,30.00,29.83,11,1,11,0.00
2013-7-20,95.5,84.9,76.9,77.3,74.0,69.8,85,71,53,29.86,29.76,13,1,13,0.00
2013-7-21,91.0,80.0,72.2,73.9,71.0,68.1,94,76,52,29.97,29.85,10,1,10,0.00
2013-7-22,88.6,76.9,71.8,78.2,72.7,69.7,98,88,66,29.97,29.81,11,1,11,0.47
2013-7-23,88.8,78.2,70.6,75.0,72.8,69.7,98,85,60,29.81,29.60,16,1,16,0.47
2013-7-24,83.2,75.6,65.4,70.5,66.2,55.5,95,74,56,29.96,29.65,12,2,12,0.00
2013-7-25,70.2,66.2,62.9,60.7,57.2,53.2,86,73,63,30.07,29.94,13,1,13,0.00
2013-7-26,83.8,73.3,63.7,64.9,62.1,59.8,91,70,49,30.07,30.01,9,2,10,0.00
2013-7-27,85.6,73.3,62.1,70.7,64.7,60.8,98,77,50,30.08,29.95,14,1,14,0.00
2013-7-28,83.3,72.2,66.5,73.2,68.5,63.6,97,89,71,30.00,29.89,12,1,12,0.44
2013-7-29,87.4,74.1,63.2,69.4,64.3,56.0,99,75,36,30.14,29.97,10,1,14,0.04
2013-7-30,85.7,70.5,57.1,64.6,59.8,55.7,97,72,42,30.20,30.13,12,1,12,0.00
2013-7-31,85.7,71.7,58.1,67.6,61.7,56.6,97,74,41,30.19,30.05,7,0,7,0.00
2013-8-1,70.6,68.4,66.1,69.6,66.5,64.1,98,94,83,30.05,29.85,10,1,10,1.02
2013-8-2,88.4,74.4,63.2,68.9,66.0,62.6,99,78,46,29.95,29.82,10,1,10,0.00
2013-8-3,74.8,69.6,64.5,69.8,66.2,62.1,96,89,77,29.95,29.89,9,0,9,0.05
2013-8-4,82.8,70.3,59.6,63.4,59.8,55.1,98,73,40,30.02,29.88,15,2,15,0.00
2013-8-5,82.7,67.1,53.4,62.4,54.8,49.4,97,69,35,30.10,30.01,12,1,12,0.00
2013-8-6,83.7,68.5,55.7,64.5,59.3,53.7,97,76,38,30.14,30.05,10,1,10,0.00
2013-8-7,79.4,71.3,65.4,69.5,66.5,63.0,94,85,68,30.15,30.07,13,1,13,0.00
2013-8-8,87.0,76.3,69.2,76.9,71.8,67.5,97,87,65,30.08,30.00,13,1,13,0.08
2013-8-9,85.8,78.8,73.6,77.2,74.2,70.9,94,86,73,30.03,29.83,12,2,12,0.00
2013-8-10,85.2,76.4,67.4,73.1,67.8,63.6,95,77,53,30.07,29.89,10,1,11,0.00
2013-8-11,86.6,72.9,59.0,71.1,62.5,57.6,97,73,44,30.15,30.03,9,1,9,0.00
2013-8-12,87.5,74.6,68.0,70.8,67.9,64.2,96,82,47,30.06,29.95,8,0,8,0.07
2013-8-13,84.2,72.9,68.2,72.5,69.4,64.7,98,89,65,29.95,29.72,10,0,10,0.87
2013-8-14,77.3,67.4,56.2,65.9,54.5,49.6,92,65,44,30.09,29.79,18,4,18,0.00
2013-8-15,82.8,65.4,50.2,61.0,53.6,47.2,98,71,34,30.18,30.09,10,1,11,0.00
2013-8-16,85.0,68.1,52.6,62.0,56.0,51.4,98,70,35,30.23,30.15,8,0,8,0.00
2013-8-17,86.3,69.0,54.5,63.6,58.3,53.1,97,72,39,30.30,30.23,10,0,10,0.00
2013-8-18,77.8,67.9,61.5,66.5,62.4,58.8,95,84,55,30.28,30.15,5,0,5,0.01
2013-8-19,80.5,69.2,60.8,67.5,63.5,59.6,98,83,57,30.17,30.07,7,0,7,0.00
2013-8-20,91.5,75.0,61.1,72.1,66.1,60.2,99,77,44,30.16,30.08,8,0,9,0.00
2013-8-21,92.2,76.7,62.4,71.9,65.3,59.3,98,73,36,30.21,30.08,7,0,7,0.00
2013-8-22,78.0,72.5,69.4,74.5,70.9,68.5,99,95,85,30.09,29.91,11,0,11,1.93
2013-8-23,84.2,72.7,64.3,69.5,65.0,56.0,98,79,41,30.12,29.91,10,1,10,0.00
2013-8-24,85.0,69.0,57.0,62.5,56.8,51.8,94,70,33,30.37,30.12,10,1,10,0.00
2013-8-25,86.7,68.2,53.2,62.1,57.1,52.1,99,73,37,30.43,30.27,9,1,9,0.00
2013-8-26,85.8,72.9,61.5,70.9,64.3,57.8,92,76,53,30.27,29.94,10,1,10,0.01
2013-8-27,92.7,78.3,69.9,72.9,69.4,67.3,96,77,48,29.95,29.87,12,2,12,0.05
2013-8-28,78.6,72.5,66.7,74.9,70.9,65.5,98,95,80,29.92,29.86,3,0,3,0.26
2013-8-29,83.8,73.7,68.0,71.5,69.5,65.7,98,88,65,30.06,29.90,13,0,13,0.00
2013-8-30,86.5,74.7,67.6,73.5,69.4,65.9,95,84,62,30.05,29.89,10,1,10,0.00
2013-8-31,88.0,77.3,70.3,76.4,72.3,68.2,96,85,65,29.90,29.81,7,1,9,0.00
2013-9-1,90.8,77.0,71.3,77.8,72.5,69.2,98,87,64,29.88,29.79,21,0,21,0.01
2013-9-2,80.8,74.5,71.2,75.2,72.6,69.4,98,94,81,29.82,29.73,11,0,11,0.52
2013-9-3,85.4,74.3,61.6,72.7,67.0,59.7,99,81,45,29.92,29.74,12,1,12,0.07
2013-9-4,84.1,69.0,57.2,64.6,59.7,56.4,98,76,44,30.04,29.92,13,1,13,0.00
2013-9-5,82.3,67.4,54.7,64.1,56.9,47.3,98,73,34,30.17,29.97,15,2,15,0.00
2013-9-6,77.2,60.1,47.6,53.4,48.2,43.0,95,70,31,30.28,30.16,13,1,13,0.00
2013-9-7,83.2,63.3,46.1,63.1,52.4,45.0,98,73,34,30.17,29.94,10,1,10,0.00
2013-9-8,86.0,70.3,55.6,67.5,59.5,49.2,96,71,44,30.11,29.86,14,2,14,0.00
2013-9-9,76.7,62.6,47.8,60.8,54.1,46.0,94,76,50,30.25,30.11,10,1,10,0.00
2013-9-10,88.5,75.2,64.2,75.1,69.4,60.6,94,83,64,30.20,30.08,12,1,12,0.00
2013-9-11,94.4,81.6,71.6,79.7,74.4,70.7,98,81,57,30.15,30.00,9,1,9,0.00
2013-9-12,87.7,76.5,69.0,76.6,71.8,67.7,97,86,66,30.02,29.71,23,1,23,0.35
2013-9-13,79.4,68.8,58.5,68.1,61.2,50.5,97,78,51,29.90,29.67,18,2,18,0.06
2013-9-14,67.7,58.2,47.3,50.7,48.5,45.2,93,71,51,30.17,29.90,15,3,15,0.00
2013-9-15,76.5,58.0,42.9,58.5,49.5,41.8,98,77,42,30.25,30.10,9,1,9,0.00
2013-9-16,74.7,61.8,55.6,59.7,55.6,49.8,97,82,53,30.26,30.06,12,1,12,0.01
2013-9-17,70.5,56.0,43.1,50.1,43.3,38.9,93,66,35,30.45,30.26,15,1,15,0.00
2013-9-18,74.2,55.8,40.2,51.9,45.9,38.8,98,74,37,30.38,30.21,8,0,8,0.00
2013-9-19,80.2,60.5,44.7,58.2,51.3,43.6,99,76,39,30.23,30.09,9,0,9,0.00
2013-9-20,82.1,64.4,49.3,63.5,56.3,48.2,98,78,46,30.12,30.00,10,1,10,0.00
2013-9-21,80.8,65.8,51.7,66.8,59.5,50.6,98,83,46,30.03,29.69,19,2,19,0.43
2013-9-22,72.8,63.3,51.9,63.2,53.2,43.2,97,73,41,29.95,29.68,16,3,16,0.26
2013-9-23,70.3,56.6,44.1,48.4,44.5,41.7,92,66,42,30.08,29.95,15,3,15,0.00
2013-9-24,77.1,55.8,39.8,55.9,46.6,38.4,97,75,40,30.09,29.91,12,1,12,0.00
2013-9-25,76.8,57.3,43.1,55.4,48.3,41.8,97,76,40,29.99,29.90,6,0,8,0.00
2013-9-26,75.5,58.8,46.8,60.7,53.3,45.5,97,84,54,30.12,29.96,8,0,8,0.00
2013-9-27,73.7,60.9,53.2,56.0,53.8,51.3,96,80,48,30.29,30.12,8,0,10,0.00
2013-9-28,76.0,61.4,51.4,56.5,52.9,48.4,97,77,42,30.34,30.25,12,1,12,0.00
2013-9-29,75.5,58.8,46.5,58.5,52.4,45.0,98,81,51,30.26,30.09,8,0,9,0.00
2013-9-30,78.8,59.1,45.2,58.5,51.4,44.0,98,79,41,30.11,30.00,7,0,7,0.00
2013-10-1,84.3,64.5,50.3,63.0,56.7,49.4,99,79,46,30.04,29.93,10,1,10,0.00
2013-10-2,87.2,68.2,53.5,64.8,59.7,52.4,99,78,46,30.05,29.95,14,1,14,0.00
2013-10-3,82.0,67.0,54.0,66.5,59.4,52.5,98,79,38,30.15,30.05,6,0,6,0.00
2013-10-4,90.5,71.4,57.7,68.7,63.0,56.3,97,78,47,30.09,29.99,8,0,8,0.00
2013-10-7,79.3,65.5,55.6,71.9,62.8,51.8,98,91,68,30.03,29.77,22,2,22,0.54
2013-10-8,71.5,56.3,45.9,52.6,48.8,45.1,99,79,42,30.34,30.03,12,1,12,0.00
2013-10-9,62.7,53.8,44.5,52.8,48.5,43.2,96,83,64,30.40,30.28,13,1,14,0.00
2013-10-10,60.5,56.3,51.5,56.7,52.6,48.3,94,87,79,30.28,30.06,15,2,15,0.14
2013-10-11,64.6,61.3,57.2,61.2,58.0,54.6,96,89,84,30.09,30.01,18,2,18,0.10
2013-10-12,74.7,64.8,58.4,59.2,53.2,43.5,85,67,46,30.27,30.07,19,2,19,0.00
2013-10-13,70.9,60.4,52.1,55.0,52.3,49.8,92,76,54,30.39,30.26,17,2,17,0.00
2013-10-14,74.4,56.1,44.0,53.1,48.9,42.9,98,79,45,30.38,30.25,8,0,9,0.00
2013-10-15,77.2,56.1,43.9,56.8,46.8,39.0,98,76,29,30.28,30.14,10,0,10,0.00
2013-10-16,71.0,59.2,46.8,60.0,54.8,44.3,95,86,67,30.14,29.93,7,0,7,0.00
2013-10-17,74.6,65.4,60.2,63.8,61.5,58.8,97,88,66,29.94,29.71,10,1,10,0.01
2013-10-18,69.8,59.6,46.1,63.3,48.0,43.3,94,67,43,30.02,29.71,16,3,16,0.00
2013-10-19,63.9,52.1,40.9,54.6,46.5,39.7,97,83,56,30.02,29.79,8,0,8,0.07
2013-10-20,66.3,52.9,41.0,54.2,41.7,35.8,95,69,34,30.10,29.80,14,2,15,0.00
2013-10-21,69.7,51.7,37.7,48.6,40.9,36.6,98,72,34,30.18,30.01,11,1,13,0.00
2013-10-22,68.8,52.1,42.3,53.1,45.7,36.4,98,80,51,30.01,29.80,11,1,12,0.00
2013-10-23,61.4,46.5,37.8,42.8,38.2,34.9,92,74,49,29.85,29.64,15,1,15,0.00
2013-10-24,55.5,44.0,36.2,37.3,32.9,29.0,90,68,39,30.06,29.80,17,2,17,0.00
2013-10-25,56.7,43.6,35.5,36.2,32.8,29.5,91,67,42,30.27,30.06,20,2,20,0.00
2013-10-26,56.4,43.3,30.0,37.2,32.5,28.7,97,69,40,30.26,29.92,20,2,20,0.00
2013-10-27,61.6,49.0,37.1,38.3,34.9,32.5,84,60,38,30.16,29.89,17,2,17,0.00
2013-10-28,66.0,45.9,30.9,39.0,34.8,29.0,96,70,35,30.33,30.15,11,1,11,0.00
2013-10-29,64.2,46.1,33.9,39.9,36.3,31.8,94,72,38,30.43,30.33,8,0,9,0.00
2013-10-30,58.7,48.0,36.4,52.0,43.7,34.2,93,85,73,30.38,30.20,8,0,8,0.00
2013-10-31,67.8,59.5,51.3,61.6,56.2,49.6,97,89,77,30.24,29.82,12,1,12,0.04
2013-11-1,70.5,63.8,54.0,64.1,59.1,52.4,97,85,62,29.82,29.58,25,3,25,0.22
2013-11-2,72.7,57.5,48.2,54.1,48.3,40.6,98,75,41,29.78,29.65,12,1,12,0.00
2013-11-11,54.5,51.0,50.0,36.7,34.2,31.3,60,53,41,30.17,29.99,14,3,14,0.00
2013-11-12,50.1,38.0,28.6,38.2,25.9,18.0,88,62,45,30.34,29.96,19,4,22,0.01
2013-11-13,44.8,32.8,25.8,21.6,17.2,12.4,70,54,29,30.41,30.31,18,3,18,0.00
2013-11-14,55.7,40.5,28.8,22.7,19.7,14.4,73,47,21,30.32,30.20,15,2,15,0.00
2013-11-15,57.7,40.9,28.7,34.8,29.3,22.3,88,66,38,30.28,30.18,8,0,8,0.00
2013-11-16,62.6,48.2,36.7,47.8,42.2,31.1,95,81,54,30.36,30.26,11,1,11,0.03
2013-11-17,64.7,55.8,45.5,59.5,52.9,43.9,94,90,81,30.28,29.78,13,1,13,0.00
2013-11-18,68.3,60.1,49.8,62.2,41.7,27.9,96,55,26,29.84,29.63,22,4,22,0.07
2013-11-19,50.7,43.7,33.1,29.7,26.1,22.5,67,50,41,30.37,29.83,23,6,23,0.00
2013-11-20,49.9,34.8,24.9,24.5,18.1,6.2,81,55,19,30.63,30.37,13,1,14,0.00
2013-11-21,56.2,40.5,23.3,41.8,31.2,17.7,85,70,50,30.63,30.40,8,1,8,0.00
2013-11-22,59.9,51.4,46.4,51.4,47.0,41.2,95,85,72,30.41,29.94,10,1,10,0.04
2013-11-23,51.9,42.4,30.5,48.8,28.0,10.7,93,58,40,30.09,29.94,25,6,25,0.00
2013-11-24,31.7,26.1,20.6,10.5,4.5,1.1,51,39,31,30.44,30.07,31,7,31,0.00
2013-11-25,39.2,28.6,19.3,17.8,13.3,6.3,74,53,39,30.53,30.36,12,2,12,0.00
2013-11-26,51.1,35.9,31.5,50.1,28.6,17.8,98,76,55,30.36,29.71,11,1,11,0.56
2013-11-27,62.7,45.8,32.9,61.7,42.8,21.3,98,89,59,29.83,29.40,27,5,27,1.41
2013-11-28,40.2,32.0,26.6,24.2,18.3,12.9,80,58,35,30.50,29.83,25,4,25,0.00
2013-11-29,44.2,32.0,22.9,26.5,21.8,18.5,90,68,41,30.75,30.49,13,1,13,0.00
2013-11-30,39.6,30.0,18.2,29.9,23.0,14.9,89,76,56,30.76,30.39,12,1,12,0.00
2013-12-1,52.7,40.2,27.9,35.2,31.0,25.4,93,71,48,30.39,30.04,8,0,8,0.00
2013-12-2,54.4,40.4,31.5,34.9,32.2,28.6,91,74,45,30.04,29.90,5,0,5,0.00
2013-12-3,57.7,42.0,32.1,40.3,34.8,29.8,93,77,46,30.03,29.90,8,0,8,0.00
2013-12-4,52.8,42.0,31.1,43.9,37.7,29.0,95,85,70,30.14,30.03,6,0,6,0.00
2013-12-5,58.0,49.1,46.5,56.7,47.8,43.7,98,95,90,30.13,29.95,5,0,11,0.02
2013-12-6,61.6,47.8,37.4,61.0,46.6,36.4,99,95,92,30.18,29.89,7,3,16,0.47
2013-12-7,43.2,35.9,28.4,36.5,29.8,21.4,97,79,58,30.53,30.11,13,3,18,0.06
2013-12-8,31.8,27.8,22.5,29.0,23.3,19.0,95,83,64,30.60,30.36,3,1,7,0.00
2013-12-9,36.0,33.6,30.5,35.0,32.6,29.0,97,96,95,30.36,30.01,3,1,8,0.37
2013-12-10,33.5,30.7,23.5,32.2,29.0,20.5,97,93,86,30.18,29.92,3,1,13,0.02
2013-12-11,33.3,27.3,20.3,21.9,19.4,16.8,91,72,57,30.37,30.18,8,2,13,0.09
2013-12-12,31.2,24.4,19.1,18.3,12.4,8.7,81,61,42,30.40,30.20,12,3,19,0.02
2013-12-13,39.0,27.9,18.5,21.0,15.6,8.1,78,60,44,30.35,30.18,7,2,16,0.00
2013-12-14,30.7,27.0,22.7,29.7,23.2,20.7,96,86,75,30.48,29.75,6,1,22,0.00
2013-12-15,41.4,34.0,28.9,35.1,29.2,22.4,97,83,63,29.88,29.56,12,3,17,0.50
2013-12-16,33.4,26.4,16.6,23.2,14.0,10.0,83,60,42,30.25,29.88,9,4,21,0.01
2013-12-17,29.7,24.8,20.7,27.7,21.8,15.8,93,88,80,30.24,29.96,4,1,9,0.00
2013-12-18,39.2,28.8,18.3,25.7,21.2,16.4,92,74,53,30.22,29.96,15,2,19,0.10
2013-12-19,47.2,33.0,20.3,31.4,25.7,18.0,93,76,49,30.22,30.05,4,1,8,0.00
2013-12-20,53.6,40.6,28.7,39.0,32.6,26.9,94,75,48,30.12,30.00,4,1,14,0.00
2013-12-21,66.5,51.6,38.5,56.2,47.2,37.1,98,86,64,30.03,29.92,7,2,11,0.00
2013-12-22,68.9,64.9,60.6,63.2,60.0,56.2,91,84,78,29.97,29.83,18,5,24,0.02
2013-12-23,61.4,54.7,40.9,59.6,52.3,35.2,98,92,79,30.19,29.92,10,2,28,0.35
2013-12-24,44.0,35.3,25.5,31.7,24.2,15.0,87,65,46,30.40,30.14,10,4,18,0.01
2013-12-25,30.3,24.8,17.7,18.0,12.4,9.0,71,59,46,30.55,30.40,8,2,15,0.00
2013-12-26,39.6,28.4,20.6,29.2,22.9,17.3,90,80,65,30.44,30.20,5,1,14,0.00
2013-12-27,44.5,31.1,22.2,23.6,21.6,19.2,90,70,43,30.39,30.30,6,1,16,0.00
2013-12-28,58.4,40.6,24.5,31.0,27.4,21.7,90,63,35,30.32,30.10,12,2,18,0.00
2013-12-29,44.7,40.8,36.3,43.9,36.5,29.1,97,85,69,30.10,29.46,6,2,16,0.87
2013-12-30,45.0,35.8,23.3,38.9,28.8,14.3,97,76,59,30.20,29.75,9,2,18,0.00
2013-12-31,33.3,26.3,18.6,28.4,16.9,12.6,85,67,59,30.33,30.09,10,2,20,0.00
2014-1-1,35.5,29.0,19.9,23.0,18.4,12.1,75,64,55,30.43,30.24,2,0,12,0.00
2014-1-2,32.8,27.0,17.7,25.2,22.3,15.5,92,82,68,30.24,29.68,8,2,15,0.00